sensor_id;sensor_type;location;lat;lon;timestamp;P1;durP1;ratioP1;P2;durP2;ratioP2
9328;SDS011;4703;48.748;19.142;2024-01-10T00:01:04;9.30;;;5.27;;
9328;SDS011;4703;48.748;19.142;2024-01-10T00:03:32;15.20;;;7.33;;
9328;SDS011;4703;48.748;19.142;2024-01-10T00:05:59;9.57;;;5.50;;
9328;SDS011;4703;48.748;19.142;2024-01-10T00:08:30;14.20;;;7.40;;
9328;SDS011;4703;48.748;19.142;2024-01-10T00:10:57;12.63;;;7.50;;
9328;SDS011;4703;48.748;19.142;2024-01-10T00:13:25;14.37;;;7.70;;
9328;SDS011;4703;48.748;19.142;2024-01-10T00:15:54;15.43;;;7.80;;
9328;SDS011;4703;48.748;19.142;2024-01-10T00:18:22;10.80;;;7.07;;
9328;SDS011;4703;48.748;19.142;2024-01-10T00:20:49;11.03;;;6.90;;
9328;SDS011;4703;48.748;19.142;2024-01-10T00:23:23;13.03;;;7.20;;
9328;SDS011;4703;48.748;19.142;2024-01-10T00:25:50;9.93;;;6.10;;
9328;SDS011;4703;48.748;19.142;2024-01-10T00:28:17;7.53;;;4.20;;
9328;SDS011;4703;48.748;19.142;2024-01-10T00:30:45;8.93;;;5.40;;
9328;SDS011;4703;48.748;19.142;2024-01-10T00:33:16;10.30;;;5.20;;
9328;SDS011;4703;48.748;19.142;2024-01-10T00:35:43;12.80;;;5.27;;
9328;SDS011;4703;48.748;19.142;2024-01-10T00:38:11;10.17;;;6.10;;
9328;SDS011;4703;48.748;19.142;2024-01-10T00:40:39;21.50;;;7.50;;
9328;SDS011;4703;48.748;19.142;2024-01-10T00:43:07;15.30;;;7.80;;
9328;SDS011;4703;48.748;19.142;2024-01-10T00:45:34;14.27;;;7.67;;
9328;SDS011;4703;48.748;19.142;2024-01-10T00:48:01;18.10;;;9.30;;
9328;SDS011;4703;48.748;19.142;2024-01-10T00:50:29;20.00;;;9.60;;
9328;SDS011;4703;48.748;19.142;2024-01-10T00:52:56;13.47;;;8.50;;
9328;SDS011;4703;48.748;19.142;2024-01-10T00:55:24;14.23;;;9.67;;
9328;SDS011;4703;48.748;19.142;2024-01-10T00:57:51;22.07;;;10.70;;
9328;SDS011;4703;48.748;19.142;2024-01-10T01:00:19;16.07;;;9.30;;
9328;SDS011;4703;48.748;19.142;2024-01-10T01:02:46;12.60;;;7.50;;
9328;SDS011;4703;48.748;19.142;2024-01-10T01:05:13;14.80;;;7.60;;
9328;SDS011;4703;48.748;19.142;2024-01-10T01:07:41;12.53;;;6.70;;
9328;SDS011;4703;48.748;19.142;2024-01-10T01:10:08;20.40;;;8.47;;
9328;SDS011;4703;48.748;19.142;2024-01-10T01:12:35;11.93;;;5.73;;
9328;SDS011;4703;48.748;19.142;2024-01-10T01:15:03;16.40;;;6.67;;
9328;SDS011;4703;48.748;19.142;2024-01-10T01:17:31;10.30;;;6.17;;
9328;SDS011;4703;48.748;19.142;2024-01-10T01:19:59;13.93;;;6.47;;
9328;SDS011;4703;48.748;19.142;2024-01-10T01:22:27;7.27;;;4.57;;
9328;SDS011;4703;48.748;19.142;2024-01-10T01:24:54;9.50;;;5.33;;
9328;SDS011;4703;48.748;19.142;2024-01-10T01:27:22;10.63;;;6.90;;
9328;SDS011;4703;48.748;19.142;2024-01-10T01:29:49;13.90;;;6.07;;
9328;SDS011;4703;48.748;19.142;2024-01-10T01:32:17;15.97;;;6.50;;
9328;SDS011;4703;48.748;19.142;2024-01-10T01:34:46;11.10;;;6.27;;
9328;SDS011;4703;48.748;19.142;2024-01-10T01:37:13;18.40;;;9.17;;
9328;SDS011;4703;48.748;19.142;2024-01-10T01:39:40;14.20;;;7.70;;
9328;SDS011;4703;48.748;19.142;2024-01-10T01:42:08;10.63;;;6.67;;
9328;SDS011;4703;48.748;19.142;2024-01-10T01:44:35;13.63;;;5.20;;
9328;SDS011;4703;48.748;19.142;2024-01-10T01:47:02;10.60;;;5.70;;
9328;SDS011;4703;48.748;19.142;2024-01-10T01:49:30;9.40;;;5.97;;
9328;SDS011;4703;48.748;19.142;2024-01-10T01:51:58;9.80;;;6.13;;
9328;SDS011;4703;48.748;19.142;2024-01-10T01:54:26;8.33;;;4.90;;
9328;SDS011;4703;48.748;19.142;2024-01-10T01:56:53;8.30;;;4.40;;
9328;SDS011;4703;48.748;19.142;2024-01-10T01:59:21;7.97;;;4.50;;
9328;SDS011;4703;48.748;19.142;2024-01-10T02:01:48;8.53;;;4.93;;
9328;SDS011;4703;48.748;19.142;2024-01-10T02:04:19;9.83;;;4.93;;
9328;SDS011;4703;48.748;19.142;2024-01-10T02:06:47;15.23;;;6.80;;
9328;SDS011;4703;48.748;19.142;2024-01-10T02:09:14;8.30;;;4.03;;
9328;SDS011;4703;48.748;19.142;2024-01-10T02:11:41;8.00;;;5.23;;
9328;SDS011;4703;48.748;19.142;2024-01-10T02:14:08;7.03;;;4.80;;
9328;SDS011;4703;48.748;19.142;2024-01-10T02:16:38;9.87;;;5.33;;
9328;SDS011;4703;48.748;19.142;2024-01-10T02:19:21;8.57;;;4.93;;
9328;SDS011;4703;48.748;19.142;2024-01-10T02:21:49;3.70;;;3.23;;
9328;SDS011;4703;48.748;19.142;2024-01-10T02:24:17;10.10;;;4.47;;
9328;SDS011;4703;48.748;19.142;2024-01-10T02:26:44;8.67;;;5.90;;
9328;SDS011;4703;48.748;19.142;2024-01-10T02:29:12;8.27;;;4.33;;
9328;SDS011;4703;48.748;19.142;2024-01-10T02:31:39;6.90;;;4.80;;
9328;SDS011;4703;48.748;19.142;2024-01-10T02:34:06;6.40;;;4.20;;
9328;SDS011;4703;48.748;19.142;2024-01-10T02:36:34;9.00;;;4.40;;
9328;SDS011;4703;48.748;19.142;2024-01-10T02:39:01;11.30;;;6.10;;
9328;SDS011;4703;48.748;19.142;2024-01-10T02:41:28;10.27;;;4.67;;
9328;SDS011;4703;48.748;19.142;2024-01-10T02:43:56;14.50;;;6.27;;
9328;SDS011;4703;48.748;19.142;2024-01-10T02:46:26;8.20;;;5.80;;
9328;SDS011;4703;48.748;19.142;2024-01-10T02:48:56;12.00;;;5.50;;
9328;SDS011;4703;48.748;19.142;2024-01-10T02:51:26;8.90;;;5.50;;
9328;SDS011;4703;48.748;19.142;2024-01-10T02:53:54;10.40;;;5.37;;
9328;SDS011;4703;48.748;19.142;2024-01-10T02:56:21;13.57;;;6.90;;
9328;SDS011;4703;48.748;19.142;2024-01-10T02:58:49;14.30;;;6.90;;
9328;SDS011;4703;48.748;19.142;2024-01-10T03:01:16;7.30;;;4.37;;
9328;SDS011;4703;48.748;19.142;2024-01-10T03:03:44;13.40;;;6.93;;
9328;SDS011;4703;48.748;19.142;2024-01-10T03:06:11;7.93;;;5.47;;
9328;SDS011;4703;48.748;19.142;2024-01-10T03:08:38;11.30;;;4.40;;
9328;SDS011;4703;48.748;19.142;2024-01-10T03:11:08;11.87;;;6.03;;
9328;SDS011;4703;48.748;19.142;2024-01-10T03:13:36;9.60;;;5.70;;
9328;SDS011;4703;48.748;19.142;2024-01-10T03:16:05;12.00;;;6.70;;
9328;SDS011;4703;48.748;19.142;2024-01-10T03:18:32;16.13;;;6.07;;
9328;SDS011;4703;48.748;19.142;2024-01-10T03:21:00;12.33;;;7.50;;
9328;SDS011;4703;48.748;19.142;2024-01-10T03:23:27;13.00;;;8.63;;
9328;SDS011;4703;48.748;19.142;2024-01-10T03:25:55;20.40;;;9.27;;
9328;SDS011;4703;48.748;19.142;2024-01-10T03:28:23;15.20;;;10.00;;
9328;SDS011;4703;48.748;19.142;2024-01-10T03:30:51;20.20;;;8.97;;
9328;SDS011;4703;48.748;19.142;2024-01-10T03:33:18;16.23;;;8.97;;
9328;SDS011;4703;48.748;19.142;2024-01-10T03:35:46;20.37;;;11.07;;
9328;SDS011;4703;48.748;19.142;2024-01-10T03:38:13;18.00;;;10.47;;
9328;SDS011;4703;48.748;19.142;2024-01-10T03:40:42;20.03;;;11.20;;
9328;SDS011;4703;48.748;19.142;2024-01-10T03:43:10;12.87;;;7.90;;
9328;SDS011;4703;48.748;19.142;2024-01-10T03:45:38;13.03;;;7.43;;
9328;SDS011;4703;48.748;19.142;2024-01-10T03:48:06;9.93;;;5.90;;
9328;SDS011;4703;48.748;19.142;2024-01-10T03:50:34;10.00;;;5.90;;
9328;SDS011;4703;48.748;19.142;2024-01-10T03:53:02;13.17;;;7.90;;
9328;SDS011;4703;48.748;19.142;2024-01-10T03:55:29;10.50;;;5.07;;
9328;SDS011;4703;48.748;19.142;2024-01-10T03:57:57;11.90;;;6.20;;
9328;SDS011;4703;48.748;19.142;2024-01-10T04:00:24;7.63;;;5.57;;
9328;SDS011;4703;48.748;19.142;2024-01-10T04:02:52;13.43;;;6.23;;
9328;SDS011;4703;48.748;19.142;2024-01-10T04:05:19;14.77;;;4.90;;
9328;SDS011;4703;48.748;19.142;2024-01-10T04:07:47;9.17;;;5.50;;
9328;SDS011;4703;48.748;19.142;2024-01-10T04:10:15;10.73;;;6.43;;
9328;SDS011;4703;48.748;19.142;2024-01-10T04:12:42;10.67;;;6.00;;
9328;SDS011;4703;48.748;19.142;2024-01-10T04:15:11;13.30;;;7.00;;
9328;SDS011;4703;48.748;19.142;2024-01-10T04:17:38;7.30;;;4.67;;
9328;SDS011;4703;48.748;19.142;2024-01-10T04:20:06;15.20;;;7.83;;
9328;SDS011;4703;48.748;19.142;2024-01-10T04:22:36;9.73;;;6.00;;
9328;SDS011;4703;48.748;19.142;2024-01-10T04:25:04;9.97;;;5.90;;
9328;SDS011;4703;48.748;19.142;2024-01-10T04:27:33;9.37;;;5.67;;
9328;SDS011;4703;48.748;19.142;2024-01-10T04:30:00;8.23;;;5.30;;
9328;SDS011;4703;48.748;19.142;2024-01-10T04:32:28;6.77;;;5.10;;
9328;SDS011;4703;48.748;19.142;2024-01-10T04:34:56;8.60;;;4.80;;
9328;SDS011;4703;48.748;19.142;2024-01-10T04:37:23;15.47;;;7.47;;
9328;SDS011;4703;48.748;19.142;2024-01-10T04:39:52;10.70;;;5.27;;
9328;SDS011;4703;48.748;19.142;2024-01-10T04:42:20;8.67;;;6.03;;
9328;SDS011;4703;48.748;19.142;2024-01-10T04:44:47;10.30;;;5.60;;
9328;SDS011;4703;48.748;19.142;2024-01-10T04:47:16;7.83;;;4.43;;
9328;SDS011;4703;48.748;19.142;2024-01-10T04:49:43;13.90;;;7.20;;
9328;SDS011;4703;48.748;19.142;2024-01-10T04:52:11;11.97;;;5.87;;
9328;SDS011;4703;48.748;19.142;2024-01-10T04:54:38;11.03;;;6.80;;
9328;SDS011;4703;48.748;19.142;2024-01-10T04:57:06;10.90;;;6.70;;
9328;SDS011;4703;48.748;19.142;2024-01-10T04:59:36;10.13;;;6.73;;
9328;SDS011;4703;48.748;19.142;2024-01-10T05:02:03;12.00;;;8.33;;
9328;SDS011;4703;48.748;19.142;2024-01-10T05:04:30;7.80;;;5.70;;
9328;SDS011;4703;48.748;19.142;2024-01-10T05:06:58;8.23;;;6.33;;
9328;SDS011;4703;48.748;19.142;2024-01-10T05:09:25;13.07;;;7.17;;
9328;SDS011;4703;48.748;19.142;2024-01-10T05:11:53;9.50;;;6.63;;
9328;SDS011;4703;48.748;19.142;2024-01-10T05:14:20;10.93;;;7.27;;
9328;SDS011;4703;48.748;19.142;2024-01-10T05:16:48;17.90;;;8.87;;
9328;SDS011;4703;48.748;19.142;2024-01-10T05:19:19;11.00;;;6.33;;
9328;SDS011;4703;48.748;19.142;2024-01-10T05:21:47;11.27;;;6.20;;
9328;SDS011;4703;48.748;19.142;2024-01-10T05:24:15;11.43;;;6.50;;
9328;SDS011;4703;48.748;19.142;2024-01-10T05:26:42;10.67;;;7.23;;
9328;SDS011;4703;48.748;19.142;2024-01-10T05:29:10;12.43;;;5.87;;
9328;SDS011;4703;48.748;19.142;2024-01-10T05:31:37;8.00;;;5.67;;
9328;SDS011;4703;48.748;19.142;2024-01-10T05:34:05;18.67;;;5.80;;
9328;SDS011;4703;48.748;19.142;2024-01-10T05:36:32;10.57;;;6.90;;
9328;SDS011;4703;48.748;19.142;2024-01-10T05:39:00;14.10;;;7.13;;
9328;SDS011;4703;48.748;19.142;2024-01-10T05:41:27;14.53;;;6.20;;
9328;SDS011;4703;48.748;19.142;2024-01-10T05:43:56;10.83;;;6.27;;
9328;SDS011;4703;48.748;19.142;2024-01-10T05:46:23;11.93;;;6.80;;
9328;SDS011;4703;48.748;19.142;2024-01-10T05:48:51;13.97;;;7.57;;
9328;SDS011;4703;48.748;19.142;2024-01-10T05:51:18;14.80;;;7.63;;
9328;SDS011;4703;48.748;19.142;2024-01-10T05:53:46;10.80;;;7.10;;
9328;SDS011;4703;48.748;19.142;2024-01-10T05:56:13;19.10;;;7.97;;
9328;SDS011;4703;48.748;19.142;2024-01-10T05:58:41;18.00;;;8.30;;
9328;SDS011;4703;48.748;19.142;2024-01-10T06:01:08;15.63;;;8.60;;
9328;SDS011;4703;48.748;19.142;2024-01-10T06:03:37;16.53;;;9.30;;
9328;SDS011;4703;48.748;19.142;2024-01-10T06:06:05;13.50;;;7.27;;
9328;SDS011;4703;48.748;19.142;2024-01-10T06:08:33;14.87;;;9.73;;
9328;SDS011;4703;48.748;19.142;2024-01-10T06:11:04;16.37;;;8.77;;
9328;SDS011;4703;48.748;19.142;2024-01-10T06:13:35;15.07;;;7.10;;
9328;SDS011;4703;48.748;19.142;2024-01-10T06:16:18;12.27;;;7.30;;
9328;SDS011;4703;48.748;19.142;2024-01-10T06:18:46;11.00;;;7.80;;
9328;SDS011;4703;48.748;19.142;2024-01-10T06:21:15;10.03;;;6.20;;
9328;SDS011;4703;48.748;19.142;2024-01-10T06:23:42;8.50;;;6.40;;
9328;SDS011;4703;48.748;19.142;2024-01-10T06:26:10;12.07;;;5.77;;
9328;SDS011;4703;48.748;19.142;2024-01-10T06:28:37;11.80;;;6.30;;
9328;SDS011;4703;48.748;19.142;2024-01-10T06:31:05;15.17;;;7.30;;
9328;SDS011;4703;48.748;19.142;2024-01-10T06:33:37;17.20;;;8.20;;
9328;SDS011;4703;48.748;19.142;2024-01-10T06:36:05;16.13;;;7.80;;
9328;SDS011;4703;48.748;19.142;2024-01-10T06:38:32;15.30;;;8.33;;
9328;SDS011;4703;48.748;19.142;2024-01-10T06:41:00;19.57;;;10.37;;
9328;SDS011;4703;48.748;19.142;2024-01-10T06:43:27;16.23;;;9.60;;
9328;SDS011;4703;48.748;19.142;2024-01-10T06:45:55;15.97;;;10.00;;
9328;SDS011;4703;48.748;19.142;2024-01-10T06:48:22;16.23;;;9.20;;
9328;SDS011;4703;48.748;19.142;2024-01-10T06:50:49;16.33;;;8.77;;
9328;SDS011;4703;48.748;19.142;2024-01-10T06:53:17;19.47;;;10.10;;
9328;SDS011;4703;48.748;19.142;2024-01-10T06:55:44;12.93;;;7.67;;
9328;SDS011;4703;48.748;19.142;2024-01-10T06:58:12;18.37;;;9.73;;
9328;SDS011;4703;48.748;19.142;2024-01-10T07:00:39;21.10;;;8.87;;
9328;SDS011;4703;48.748;19.142;2024-01-10T07:03:06;15.37;;;7.37;;
9328;SDS011;4703;48.748;19.142;2024-01-10T07:05:34;11.03;;;5.77;;
9328;SDS011;4703;48.748;19.142;2024-01-10T07:08:01;9.77;;;6.00;;
9328;SDS011;4703;48.748;19.142;2024-01-10T07:10:29;16.53;;;7.90;;
9328;SDS011;4703;48.748;19.142;2024-01-10T07:12:57;11.40;;;6.77;;
9328;SDS011;4703;48.748;19.142;2024-01-10T07:15:24;8.50;;;5.80;;
9328;SDS011;4703;48.748;19.142;2024-01-10T07:17:52;8.10;;;5.03;;
9328;SDS011;4703;48.748;19.142;2024-01-10T07:20:19;14.87;;;7.77;;
9328;SDS011;4703;48.748;19.142;2024-01-10T07:22:47;8.93;;;6.60;;
9328;SDS011;4703;48.748;19.142;2024-01-10T07:25:15;9.57;;;5.67;;
9328;SDS011;4703;48.748;19.142;2024-01-10T07:27:43;10.33;;;6.13;;
9328;SDS011;4703;48.748;19.142;2024-01-10T07:30:11;16.60;;;7.97;;
9328;SDS011;4703;48.748;19.142;2024-01-10T07:32:45;14.93;;;6.97;;
9328;SDS011;4703;48.748;19.142;2024-01-10T07:35:13;14.57;;;6.43;;
9328;SDS011;4703;48.748;19.142;2024-01-10T07:37:41;10.33;;;4.90;;
9328;SDS011;4703;48.748;19.142;2024-01-10T07:40:09;11.50;;;6.47;;
9328;SDS011;4703;48.748;19.142;2024-01-10T07:42:37;13.50;;;5.77;;
9328;SDS011;4703;48.748;19.142;2024-01-10T07:45:08;16.57;;;8.27;;
9328;SDS011;4703;48.748;19.142;2024-01-10T07:47:35;12.00;;;7.90;;
9328;SDS011;4703;48.748;19.142;2024-01-10T07:50:10;13.80;;;8.43;;
9328;SDS011;4703;48.748;19.142;2024-01-10T07:52:42;13.87;;;7.67;;
9328;SDS011;4703;48.748;19.142;2024-01-10T07:55:10;12.30;;;8.40;;
9328;SDS011;4703;48.748;19.142;2024-01-10T07:57:38;13.87;;;6.93;;
9328;SDS011;4703;48.748;19.142;2024-01-10T08:00:05;12.00;;;7.60;;
9328;SDS011;4703;48.748;19.142;2024-01-10T08:02:37;8.60;;;5.87;;
9328;SDS011;4703;48.748;19.142;2024-01-10T08:05:06;13.27;;;7.97;;
9328;SDS011;4703;48.748;19.142;2024-01-10T08:07:37;10.57;;;6.83;;
9328;SDS011;4703;48.748;19.142;2024-01-10T08:10:09;9.97;;;7.07;;
9328;SDS011;4703;48.748;19.142;2024-01-10T08:12:37;13.03;;;7.20;;
9328;SDS011;4703;48.748;19.142;2024-01-10T08:15:10;16.03;;;7.03;;
9328;SDS011;4703;48.748;19.142;2024-01-10T08:17:38;8.20;;;6.07;;
9328;SDS011;4703;48.748;19.142;2024-01-10T08:20:06;12.10;;;7.00;;
9328;SDS011;4703;48.748;19.142;2024-01-10T08:22:35;12.97;;;6.97;;
9328;SDS011;4703;48.748;19.142;2024-01-10T08:25:03;15.37;;;6.87;;
9328;SDS011;4703;48.748;19.142;2024-01-10T08:27:31;11.23;;;6.67;;
9328;SDS011;4703;48.748;19.142;2024-01-10T08:29:59;16.00;;;7.03;;
9328;SDS011;4703;48.748;19.142;2024-01-10T08:32:27;14.43;;;8.80;;
9328;SDS011;4703;48.748;19.142;2024-01-10T08:34:54;11.50;;;8.27;;
9328;SDS011;4703;48.748;19.142;2024-01-10T08:37:21;8.20;;;6.60;;
9328;SDS011;4703;48.748;19.142;2024-01-10T08:39:49;13.10;;;6.20;;
9328;SDS011;4703;48.748;19.142;2024-01-10T08:42:16;13.10;;;6.20;;
9328;SDS011;4703;48.748;19.142;2024-01-10T08:44:44;7.77;;;5.97;;
9328;SDS011;4703;48.748;19.142;2024-01-10T08:47:11;13.23;;;7.43;;
9328;SDS011;4703;48.748;19.142;2024-01-10T08:49:38;9.00;;;6.87;;
9328;SDS011;4703;48.748;19.142;2024-01-10T08:52:06;16.33;;;7.23;;
9328;SDS011;4703;48.748;19.142;2024-01-10T08:54:35;16.07;;;7.70;;
9328;SDS011;4703;48.748;19.142;2024-01-10T08:57:02;9.73;;;5.90;;
9328;SDS011;4703;48.748;19.142;2024-01-10T08:59:29;8.93;;;6.77;;
9328;SDS011;4703;48.748;19.142;2024-01-10T09:01:57;11.73;;;6.93;;
9328;SDS011;4703;48.748;19.142;2024-01-10T09:04:25;11.37;;;7.77;;
9328;SDS011;4703;48.748;19.142;2024-01-10T09:06:52;8.13;;;6.17;;
9328;SDS011;4703;48.748;19.142;2024-01-10T09:09:19;10.93;;;6.17;;
9328;SDS011;4703;48.748;19.142;2024-01-10T09:11:47;8.63;;;7.37;;
9328;SDS011;4703;48.748;19.142;2024-01-10T09:14:14;11.90;;;8.10;;
9328;SDS011;4703;48.748;19.142;2024-01-10T09:16:42;10.93;;;6.57;;
9328;SDS011;4703;48.748;19.142;2024-01-10T09:19:09;10.60;;;7.50;;
9328;SDS011;4703;48.748;19.142;2024-01-10T09:21:37;13.77;;;6.93;;
9328;SDS011;4703;48.748;19.142;2024-01-10T09:24:04;10.70;;;7.00;;
9328;SDS011;4703;48.748;19.142;2024-01-10T09:26:51;9.70;;;6.70;;
9328;SDS011;4703;48.748;19.142;2024-01-10T09:29:20;15.50;;;8.63;;
9328;SDS011;4703;48.748;19.142;2024-01-10T09:31:47;9.13;;;7.60;;
9328;SDS011;4703;48.748;19.142;2024-01-10T09:34:14;9.17;;;6.30;;
9328;SDS011;4703;48.748;19.142;2024-01-10T09:36:41;9.10;;;6.67;;
9328;SDS011;4703;48.748;19.142;2024-01-10T09:39:09;10.73;;;6.23;;
9328;SDS011;4703;48.748;19.142;2024-01-10T09:41:40;10.00;;;6.17;;
9328;SDS011;4703;48.748;19.142;2024-01-10T09:44:18;15.33;;;7.50;;
9328;SDS011;4703;48.748;19.142;2024-01-10T09:46:52;10.07;;;7.90;;
9328;SDS011;4703;48.748;19.142;2024-01-10T09:49:21;8.93;;;7.00;;
9328;SDS011;4703;48.748;19.142;2024-01-10T09:51:50;8.20;;;6.47;;
9328;SDS011;4703;48.748;19.142;2024-01-10T09:54:20;11.83;;;6.87;;
9328;SDS011;4703;48.748;19.142;2024-01-10T09:56:49;7.90;;;6.30;;
9328;SDS011;4703;48.748;19.142;2024-01-10T09:59:17;8.73;;;5.67;;
9328;SDS011;4703;48.748;19.142;2024-01-10T10:01:44;8.57;;;6.40;;
9328;SDS011;4703;48.748;19.142;2024-01-10T10:04:12;11.93;;;6.77;;
9328;SDS011;4703;48.748;19.142;2024-01-10T10:06:39;6.57;;;5.93;;
9328;SDS011;4703;48.748;19.142;2024-01-10T10:09:07;12.83;;;7.90;;
9328;SDS011;4703;48.748;19.142;2024-01-10T10:11:35;15.27;;;8.43;;
9328;SDS011;4703;48.748;19.142;2024-01-10T10:14:24;18.13;;;10.87;;
9328;SDS011;4703;48.748;19.142;2024-01-10T10:16:52;15.07;;;8.53;;
9328;SDS011;4703;48.748;19.142;2024-01-10T10:19:23;11.17;;;8.53;;
9328;SDS011;4703;48.748;19.142;2024-01-10T10:22:08;12.37;;;7.93;;
9328;SDS011;4703;48.748;19.142;2024-01-10T10:24:36;9.97;;;7.63;;
9328;SDS011;4703;48.748;19.142;2024-01-10T10:27:08;11.43;;;8.27;;
9328;SDS011;4703;48.748;19.142;2024-01-10T10:29:37;10.27;;;8.10;;
9328;SDS011;4703;48.748;19.142;2024-01-10T10:32:06;11.10;;;8.83;;
9328;SDS011;4703;48.748;19.142;2024-01-10T10:34:35;9.40;;;8.23;;
9328;SDS011;4703;48.748;19.142;2024-01-10T10:37:02;10.67;;;8.23;;
9328;SDS011;4703;48.748;19.142;2024-01-10T10:39:30;12.03;;;8.20;;
9328;SDS011;4703;48.748;19.142;2024-01-10T10:41:57;12.83;;;8.17;;
9328;SDS011;4703;48.748;19.142;2024-01-10T10:44:25;10.83;;;7.50;;
9328;SDS011;4703;48.748;19.142;2024-01-10T10:46:58;11.17;;;7.20;;
9328;SDS011;4703;48.748;19.142;2024-01-10T10:49:40;10.50;;;6.07;;
9328;SDS011;4703;48.748;19.142;2024-01-10T10:52:18;9.63;;;5.70;;
9328;SDS011;4703;48.748;19.142;2024-01-10T10:54:46;8.73;;;7.03;;
9328;SDS011;4703;48.748;19.142;2024-01-10T10:57:14;8.77;;;5.50;;
9328;SDS011;4703;48.748;19.142;2024-01-10T10:59:45;9.70;;;6.80;;
9328;SDS011;4703;48.748;19.142;2024-01-10T11:02:16;8.30;;;5.20;;
9328;SDS011;4703;48.748;19.142;2024-01-10T11:04:55;13.13;;;6.27;;
9328;SDS011;4703;48.748;19.142;2024-01-10T11:07:23;5.40;;;4.53;;
9328;SDS011;4703;48.748;19.142;2024-01-10T11:09:50;6.50;;;4.53;;
9328;SDS011;4703;48.748;19.142;2024-01-10T11:18:09;7.07;;;4.40;;
9328;SDS011;4703;48.748;19.142;2024-01-10T11:24:04;6.00;;;3.47;;
9328;SDS011;4703;48.748;19.142;2024-01-10T11:26:33;3.67;;;2.97;;
9328;SDS011;4703;48.748;19.142;2024-01-10T11:29:00;2.87;;;2.60;;
9328;SDS011;4703;48.748;19.142;2024-01-10T11:31:31;3.00;;;2.73;;
9328;SDS011;4703;48.748;19.142;2024-01-10T11:34:02;4.00;;;3.60;;
9328;SDS011;4703;48.748;19.142;2024-01-10T11:36:32;5.60;;;4.10;;
9328;SDS011;4703;48.748;19.142;2024-01-10T11:38:59;4.07;;;3.17;;
9328;SDS011;4703;48.748;19.142;2024-01-10T11:41:36;5.63;;;4.10;;
9328;SDS011;4703;48.748;19.142;2024-01-10T11:46:40;3.90;;;3.50;;
9328;SDS011;4703;48.748;19.142;2024-01-10T11:49:20;11.77;;;4.90;;
9328;SDS011;4703;48.748;19.142;2024-01-10T11:51:49;10.37;;;4.73;;
9328;SDS011;4703;48.748;19.142;2024-01-10T11:57:11;7.90;;;5.23;;
9328;SDS011;4703;48.748;19.142;2024-01-10T11:59:47;6.37;;;5.70;;
9328;SDS011;4703;48.748;19.142;2024-01-10T12:02:19;5.57;;;4.70;;
9328;SDS011;4703;48.748;19.142;2024-01-10T12:04:48;5.47;;;4.80;;
9328;SDS011;4703;48.748;19.142;2024-01-10T12:07:17;7.13;;;5.33;;
9328;SDS011;4703;48.748;19.142;2024-01-10T12:09:46;8.17;;;5.63;;
9328;SDS011;4703;48.748;19.142;2024-01-10T12:12:14;6.67;;;6.00;;
9328;SDS011;4703;48.748;19.142;2024-01-10T12:14:42;9.90;;;7.07;;
9328;SDS011;4703;48.748;19.142;2024-01-10T12:17:13;9.90;;;8.37;;
9328;SDS011;4703;48.748;19.142;2024-01-10T12:19:40;8.77;;;6.90;;
9328;SDS011;4703;48.748;19.142;2024-01-10T12:22:12;12.33;;;7.30;;
9328;SDS011;4703;48.748;19.142;2024-01-10T12:24:43;9.90;;;8.13;;
9328;SDS011;4703;48.748;19.142;2024-01-10T12:27:18;11.70;;;8.20;;
9328;SDS011;4703;48.748;19.142;2024-01-10T12:29:49;14.57;;;10.07;;
9328;SDS011;4703;48.748;19.142;2024-01-10T12:32:21;28.10;;;19.10;;
9328;SDS011;4703;48.748;19.142;2024-01-10T12:35:02;12.97;;;9.30;;
9328;SDS011;4703;48.748;19.142;2024-01-10T12:37:31;11.50;;;9.00;;
9328;SDS011;4703;48.748;19.142;2024-01-10T12:39:58;17.50;;;11.23;;
9328;SDS011;4703;48.748;19.142;2024-01-10T12:42:26;11.43;;;9.87;;
9328;SDS011;4703;48.748;19.142;2024-01-10T12:44:53;10.10;;;7.90;;
9328;SDS011;4703;48.748;19.142;2024-01-10T12:47:21;12.20;;;8.90;;
9328;SDS011;4703;48.748;19.142;2024-01-10T12:49:50;13.87;;;9.57;;
9328;SDS011;4703;48.748;19.142;2024-01-10T12:52:18;10.47;;;8.40;;
9328;SDS011;4703;48.748;19.142;2024-01-10T12:54:50;13.13;;;7.80;;
9328;SDS011;4703;48.748;19.142;2024-01-10T12:57:18;11.20;;;8.30;;
9328;SDS011;4703;48.748;19.142;2024-01-10T12:59:45;12.97;;;8.70;;
9328;SDS011;4703;48.748;19.142;2024-01-10T13:02:12;13.40;;;10.53;;
9328;SDS011;4703;48.748;19.142;2024-01-10T13:04:40;10.50;;;7.97;;
9328;SDS011;4703;48.748;19.142;2024-01-10T13:07:07;7.30;;;6.30;;
9328;SDS011;4703;48.748;19.142;2024-01-10T13:09:34;8.30;;;6.80;;
9328;SDS011;4703;48.748;19.142;2024-01-10T13:12:03;8.37;;;6.10;;
9328;SDS011;4703;48.748;19.142;2024-01-10T13:14:31;8.30;;;7.07;;
9328;SDS011;4703;48.748;19.142;2024-01-10T13:16:59;8.20;;;6.53;;
9328;SDS011;4703;48.748;19.142;2024-01-10T13:19:26;7.23;;;6.40;;
9328;SDS011;4703;48.748;19.142;2024-01-10T13:21:54;10.80;;;8.07;;
9328;SDS011;4703;48.748;19.142;2024-01-10T13:24:24;13.67;;;8.27;;
9328;SDS011;4703;48.748;19.142;2024-01-10T13:26:59;10.80;;;7.77;;
9328;SDS011;4703;48.748;19.142;2024-01-10T13:29:26;8.17;;;7.07;;
9328;SDS011;4703;48.748;19.142;2024-01-10T13:31:53;9.80;;;7.13;;
9328;SDS011;4703;48.748;19.142;2024-01-10T13:34:20;11.37;;;7.10;;
9328;SDS011;4703;48.748;19.142;2024-01-10T13:36:48;8.40;;;6.20;;
9328;SDS011;4703;48.748;19.142;2024-01-10T13:39:15;9.47;;;6.70;;
9328;SDS011;4703;48.748;19.142;2024-01-10T13:41:42;7.80;;;7.00;;
9328;SDS011;4703;48.748;19.142;2024-01-10T13:44:09;7.60;;;6.00;;
9328;SDS011;4703;48.748;19.142;2024-01-10T13:46:36;8.70;;;6.47;;
9328;SDS011;4703;48.748;19.142;2024-01-10T13:49:03;9.50;;;6.83;;
9328;SDS011;4703;48.748;19.142;2024-01-10T13:51:31;9.67;;;7.60;;
9328;SDS011;4703;48.748;19.142;2024-01-10T13:53:58;9.00;;;6.97;;
9328;SDS011;4703;48.748;19.142;2024-01-10T13:56:25;8.00;;;7.00;;
9328;SDS011;4703;48.748;19.142;2024-01-10T13:58:54;11.27;;;8.07;;
9328;SDS011;4703;48.748;19.142;2024-01-10T14:01:21;7.90;;;6.30;;
9328;SDS011;4703;48.748;19.142;2024-01-10T14:03:48;14.60;;;6.77;;
9328;SDS011;4703;48.748;19.142;2024-01-10T14:06:16;7.50;;;6.70;;
9328;SDS011;4703;48.748;19.142;2024-01-10T14:08:43;8.40;;;7.20;;
9328;SDS011;4703;48.748;19.142;2024-01-10T14:11:12;11.83;;;7.97;;
9328;SDS011;4703;48.748;19.142;2024-01-10T14:13:40;8.57;;;7.30;;
9328;SDS011;4703;48.748;19.142;2024-01-10T14:16:07;22.97;;;13.67;;
9328;SDS011;4703;48.748;19.142;2024-01-10T14:18:34;18.03;;;11.70;;
9328;SDS011;4703;48.748;19.142;2024-01-10T14:21:01;16.63;;;12.87;;
9328;SDS011;4703;48.748;19.142;2024-01-10T14:23:28;22.27;;;15.20;;
9328;SDS011;4703;48.748;19.142;2024-01-10T14:25:56;14.70;;;11.60;;
9328;SDS011;4703;48.748;19.142;2024-01-10T14:28:23;14.57;;;10.80;;
9328;SDS011;4703;48.748;19.142;2024-01-10T14:30:50;18.20;;;12.80;;
9328;SDS011;4703;48.748;19.142;2024-01-10T14:33:19;18.23;;;13.77;;
9328;SDS011;4703;48.748;19.142;2024-01-10T14:35:47;13.57;;;10.40;;
9328;SDS011;4703;48.748;19.142;2024-01-10T14:38:14;13.70;;;9.70;;
9328;SDS011;4703;48.748;19.142;2024-01-10T14:40:44;23.30;;;9.70;;
9328;SDS011;4703;48.748;19.142;2024-01-10T14:43:11;23.07;;;12.20;;
9328;SDS011;4703;48.748;19.142;2024-01-10T14:45:39;30.97;;;19.37;;
9328;SDS011;4703;48.748;19.142;2024-01-10T14:48:06;29.33;;;20.20;;
9328;SDS011;4703;48.748;19.142;2024-01-10T14:50:33;31.07;;;19.27;;
9328;SDS011;4703;48.748;19.142;2024-01-10T14:53:01;32.17;;;21.10;;
9328;SDS011;4703;48.748;19.142;2024-01-10T14:55:28;25.00;;;20.00;;
9328;SDS011;4703;48.748;19.142;2024-01-10T14:57:55;25.53;;;16.80;;
9328;SDS011;4703;48.748;19.142;2024-01-10T15:00:22;31.50;;;18.67;;
9328;SDS011;4703;48.748;19.142;2024-01-10T15:02:49;36.73;;;21.40;;
9328;SDS011;4703;48.748;19.142;2024-01-10T15:05:17;39.77;;;24.93;;
9328;SDS011;4703;48.748;19.142;2024-01-10T15:07:45;40.33;;;23.40;;
9328;SDS011;4703;48.748;19.142;2024-01-10T15:10:12;35.00;;;23.10;;
9328;SDS011;4703;48.748;19.142;2024-01-10T15:12:39;49.77;;;27.20;;